Time;durP1;ratioP1;P1;durP2;ratioP2;P2;SDS_P1;SDS_P2;PMS_P1;PMS_P2;Temp;Humidity;BMP_temperature;BMP_pressure;BME280_temperature;BME280_humidity;BME280_pressure;Samples;Min_cycle;Max_cycle;Signal;HPM_P1;HPM_P2
2023/06/09 00:00:55;;;;;;;5.22;3.00;;;13.30;99.90;;;;;;5024738;28;20053;-70
2023/06/09 00:03:21;;;;;;;8.52;2.38;;;13.30;99.90;;;;;;5026366;28;20077;-70
2023/06/09 00:05:48;;;;;;;8.32;2.22;;;13.30;99.90;;;;;;5025972;28;20041;-70
2023/06/09 00:08:13;;;;;;;2.72;1.77;;;13.30;99.90;;;;;;5025834;28;20103;-70
2023/06/09 00:10:39;;;;;;;4.90;2.25;;;13.20;99.90;;;;;;5025027;28;20120;-70
2023/06/09 00:13:05;;;;;;;3.58;1.83;;;13.20;99.90;;;;;;5025067;28;20080;-70
2023/06/09 00:15:30;;;;;;;4.07;2.20;;;13.20;99.90;;;;;;5024225;28;20052;-70
2023/06/09 00:17:56;;;;;;;7.88;2.55;;;13.20;99.90;;;;;;5024521;28;20065;-70
2023/06/09 00:20:24;;;;;;;11.43;2.97;;;13.10;99.90;;;;;;5024239;28;20132;-70
2023/06/09 00:22:49;;;;;;;6.47;1.75;;;13.10;99.90;;;;;;5025892;28;20042;-70
2023/06/09 00:25:19;;;;;;;4.63;2.17;;;13.10;99.90;;;;;;5025543;28;20068;-70
2023/06/09 00:27:45;;;;;;;9.80;3.00;;;13.10;99.90;;;;;;5024604;28;20077;-70
2023/06/09 00:30:14;;;;;;;5.97;2.50;;;13.10;99.90;;;;;;5025161;28;20114;-70
2023/06/09 00:32:42;;;;;;;6.45;1.83;;;13.10;99.90;;;;;;5025929;28;20037;-70
2023/06/09 00:35:08;;;;;;;11.85;2.13;;;13.10;99.90;;;;;;5025433;28;20055;-70
2023/06/09 00:37:35;;;;;;;7.90;2.67;;;13.00;99.90;;;;;;5040600;28;20037;-70
2023/06/09 00:40:00;;;;;;;6.40;2.15;;;13.00;99.90;;;;;;5025361;28;20049;-70
2023/06/09 00:42:26;;;;;;;4.68;2.15;;;13.00;99.90;;;;;;5024895;28;20488;-70
2023/06/09 00:44:52;;;;;;;6.13;3.00;;;13.00;99.90;;;;;;5024567;28;20077;-70
2023/06/09 00:47:18;;;;;;;7.00;1.70;;;13.00;99.90;;;;;;5025230;28;20045;-70
2023/06/09 00:49:43;;;;;;;5.75;2.25;;;13.00;99.90;;;;;;5025449;28;20383;-70
2023/06/09 00:52:10;;;;;;;3.67;1.88;;;13.00;99.90;;;;;;5025063;28;20467;-70
2023/06/09 00:54:36;;;;;;;5.90;2.20;;;13.00;99.90;;;;;;5025067;28;20108;-70
2023/06/09 00:57:03;;;;;;;8.95;2.72;;;13.00;99.90;;;;;;5025153;28;20045;-70
2023/06/09 00:59:29;;;;;;;5.32;2.25;;;13.00;99.90;;;;;;5022894;28;20131;-70
2023/06/09 01:01:55;;;;;;;6.18;2.22;;;12.90;99.90;;;;;;5025223;28;20033;-70
2023/06/09 01:04:21;;;;;;;6.65;2.22;;;13.00;99.90;;;;;;5111510;23;20054;-71
2023/06/09 01:07:00;;;;;;;3.88;1.67;;;12.90;99.90;;;;;;5004507;28;20512;-71
2023/06/09 01:09:32;;;;;;;11.30;2.95;;;12.90;99.90;;;;;;5005566;28;20056;-70
2023/06/09 01:12:36;;;;;;;5.00;1.90;;;12.90;99.90;;;;;;5005607;28;20414;-71
2023/06/09 01:15:12;;;;;;;4.22;2.00;;;12.90;99.90;;;;;;4990064;28;21105;-71
2023/06/09 01:17:42;;;;;;;8.02;2.33;;;12.90;99.90;;;;;;5005140;28;20061;-71
2023/06/09 01:20:10;;;;;;;5.45;2.08;;;12.90;99.90;;;;;;5006340;28;20053;-70
2023/06/09 01:23:15;;;;;;;10.43;3.25;;;12.90;99.90;;;;;;5003904;28;20042;-71
2023/06/09 01:25:43;;;;;;;6.97;2.17;;;12.90;99.90;;;;;;5006178;28;20046;-72
2023/06/09 01:28:11;;;;;;;4.95;2.20;;;12.90;99.90;;;;;;5005327;28;20049;-71
2023/06/09 01:30:40;;;;;;;5.60;2.17;;;12.90;99.90;;;;;;5004898;28;20654;-71
2023/06/09 01:33:17;;;;;;;6.45;3.15;;;12.90;99.90;;;;;;5004164;28;20143;-71
2023/06/09 01:35:43;;;;;;;5.00;2.58;;;12.90;99.90;;;;;;5005508;28;20132;-72
2023/06/09 01:38:09;;;;;;;5.97;2.83;;;12.90;99.90;;;;;;5005800;28;20121;-71
2023/06/09 01:40:35;;;;;;;9.88;2.70;;;12.90;99.90;;;;;;5005504;28;20676;-71
2023/06/09 01:43:04;;;;;;;6.78;3.35;;;12.90;99.90;;;;;;5003194;28;20133;-71
2023/06/09 01:45:29;;;;;;;10.90;3.38;;;12.90;99.90;;;;;;5005622;28;20057;-71
2023/06/09 01:47:55;;;;;;;9.75;2.92;;;12.90;99.90;;;;;;5004357;28;20042;-71
2023/06/09 01:50:49;;;;;;;7.55;3.30;;;12.90;99.90;;;;;;5004433;28;20738;-71
2023/06/09 01:53:22;;;;;;;6.82;2.83;;;12.90;99.90;;;;;;5009022;28;20034;-71
2023/06/09 01:55:56;;;;;;;11.27;3.17;;;12.90;99.90;;;;;;5009697;28;20449;-70
2023/06/09 01:58:37;;;;;;;6.43;2.70;;;12.90;99.90;;;;;;5006716;28;20104;-71
2023/06/09 02:01:04;;;;;;;3.33;1.80;;;12.90;99.90;;;;;;5008158;28;20129;-71
2023/06/09 02:03:31;;;;;;;7.45;2.70;;;12.90;99.90;;;;;;5007497;28;20604;-71
2023/06/09 02:05:58;;;;;;;6.55;2.25;;;12.90;99.90;;;;;;5007911;28;20073;-72
2023/06/09 02:08:25;;;;;;;4.47;2.15;;;12.80;99.90;;;;;;5024159;28;20065;-71
2023/06/09 02:10:51;;;;;;;6.65;2.42;;;12.80;99.90;;;;;;5007863;28;20560;-70
2023/06/09 02:13:21;;;;;;;5.63;2.25;;;12.80;99.90;;;;;;5007878;28;20047;-71
2023/06/09 02:15:47;;;;;;;4.93;2.38;;;12.80;99.90;;;;;;5009120;28;20121;-70
2023/06/09 02:18:15;;;;;;;9.27;2.25;;;12.80;99.90;;;;;;5008491;28;20053;-71
2023/06/09 02:20:42;;;;;;;6.18;2.05;;;12.80;99.90;;;;;;5009107;28;20074;-69
2023/06/09 02:23:09;;;;;;;6.50;2.40;;;12.80;99.90;;;;;;5008029;28;20048;-70
2023/06/09 02:25:34;;;;;;;6.85;2.90;;;12.80;99.90;;;;;;5008424;28;20046;-71
2023/06/09 02:28:03;;;;;;;4.55;2.00;;;12.80;99.90;;;;;;5007995;28;20064;-70
2023/06/09 02:30:29;;;;;;;4.30;2.03;;;12.70;99.90;;;;;;5008371;28;20407;-70
2023/06/09 02:33:01;;;;;;;11.57;2.47;;;12.70;99.90;;;;;;5007252;28;20049;-71
2023/06/09 02:35:30;;;;;;;;;;;12.70;99.90;;;;;;5008731;28;20045;-70
2023/06/09 02:37:57;;;;;;;7.82;1.90;;;12.70;99.90;;;;;;5008546;28;19921;-71
2023/06/09 02:40:26;;;;;;;7.30;2.53;;;12.70;99.90;;;;;;5007126;28;20134;-70
2023/06/09 02:42:51;;;;;;;7.28;1.92;;;12.70;99.90;;;;;;5007628;28;20121;-71
2023/06/09 02:45:17;;;;;;;9.95;2.50;;;12.70;99.90;;;;;;5006783;28;20125;-70
2023/06/09 02:47:42;;;;;;;6.70;2.97;;;12.70;99.90;;;;;;5007082;28;20103;-71
2023/06/09 02:50:08;;;;;;;4.55;2.25;;;12.70;99.90;;;;;;5009014;28;20092;-71
2023/06/09 02:52:34;;;;;;;11.05;2.70;;;12.70;99.90;;;;;;5008066;28;20099;-71
2023/06/09 02:55:00;;;;;;;6.40;2.78;;;12.70;99.90;;;;;;5008235;28;20048;-71
2023/06/09 02:57:27;;;;;;;9.82;3.15;;;12.70;99.90;;;;;;5007008;28;20101;-70
2023/06/09 02:59:53;;;;;;;8.93;2.22;;;12.70;99.90;;;;;;5008005;28;20497;-71
2023/06/09 03:02:18;;;;;;;5.78;2.80;;;12.70;99.90;;;;;;5006325;28;20077;-71
2023/06/09 03:04:45;;;;;;;9.77;2.85;;;12.70;99.90;;;;;;5006706;28;20145;-70
2023/06/09 03:07:13;;;;;;;4.55;2.47;;;12.60;99.90;;;;;;5008584;28;20045;-71
2023/06/09 03:09:43;;;;;;;6.63;3.28;;;12.60;99.90;;;;;;5006732;28;20089;-71
2023/06/09 03:12:09;;;;;;;5.07;2.78;;;12.60;99.90;;;;;;5006912;28;20637;-71
2023/06/09 03:14:35;;;;;;;8.55;3.38;;;12.60;99.90;;;;;;5006667;28;20129;-71
2023/06/09 03:17:01;;;;;;;8.25;3.53;;;12.60;99.90;;;;;;5007817;28;20145;-71
2023/06/09 03:19:27;;;;;;;5.47;3.50;;;12.60;99.90;;;;;;5007793;28;20046;-71
2023/06/09 03:21:53;;;;;;;8.48;2.83;;;12.60;99.90;;;;;;5007761;28;20045;-71
2023/06/09 03:24:19;;;;;;;5.82;2.78;;;12.60;99.90;;;;;;5005832;28;20050;-71
2023/06/09 03:26:48;;;;;;;7.35;2.47;;;12.60;99.90;;;;;;5007867;28;20452;-70
2023/06/09 03:29:14;;;;;;;7.50;2.60;;;12.60;99.90;;;;;;5006245;28;20485;-70
2023/06/09 03:31:40;;;;;;;12.32;2.70;;;12.60;99.90;;;;;;5006671;28;20423;-71
2023/06/09 03:34:05;;;;;;;6.70;3.10;;;12.60;99.90;;;;;;4989694;28;20096;-71
2023/06/09 03:36:33;;;;;;;7.80;2.42;;;12.60;99.90;;;;;;5007263;28;20560;-71
2023/06/09 03:38:58;;;;;;;8.48;3.13;;;12.60;99.90;;;;;;5007285;28;20050;-71
2023/06/09 03:41:27;;;;;;;9.23;2.65;;;12.60;99.90;;;;;;4989257;28;20111;-70
2023/06/09 03:43:52;;;;;;;5.50;3.22;;;12.60;99.90;;;;;;5006195;28;20089;-71
2023/06/09 03:46:18;;;;;;;12.10;3.15;;;12.60;99.90;;;;;;5005645;28;20092;-71
2023/06/09 03:48:44;;;;;;;10.50;2.40;;;12.60;99.90;;;;;;5005914;28;20524;-69
2023/06/09 03:51:09;;;;;;;4.43;2.40;;;12.60;99.90;;;;;;5007788;28;20037;-71
2023/06/09 03:53:35;;;;;;;4.45;2.25;;;12.60;99.90;;;;;;5006877;28;20061;-71
2023/06/09 03:56:00;;;;;;;4.97;2.55;;;12.60;99.90;;;;;;5005603;28;20528;-71
2023/06/09 03:58:27;;;;;;;13.30;3.17;;;12.60;99.90;;;;;;5004850;28;20061;-71
2023/06/09 04:00:52;;;;;;;4.82;2.30;;;12.70;99.90;;;;;;5005181;28;20045;-71
2023/06/09 04:03:20;;;;;;;9.50;3.35;;;12.70;99.90;;;;;;5006780;28;20045;-72
2023/06/09 04:05:46;;;;;;;6.72;2.78;;;12.70;99.90;;;;;;5022003;28;20056;-72
2023/06/09 04:08:12;;;;;;;8.48;2.80;;;12.70;99.90;;;;;;5006417;28;20042;-71
2023/06/09 04:10:38;;;;;;;9.27;2.63;;;12.70;99.90;;;;;;5006993;28;20457;-71
2023/06/09 04:13:04;;;;;;;6.25;2.13;;;12.70;99.90;;;;;;5004154;28;20080;-71
2023/06/09 04:15:31;;;;;;;7.75;2.67;;;12.70;99.90;;;;;;5006021;28;20145;-71
2023/06/09 04:17:57;;;;;;;5.57;2.75;;;12.70;99.90;;;;;;5006713;28;20038;-69
2023/06/09 04:20:24;;;;;;;6.47;2.25;;;12.70;99.90;;;;;;5006404;28;20052;-71
2023/06/09 04:22:51;;;;;;;6.18;2.50;;;12.70;99.90;;;;;;5005250;28;20034;-71
2023/06/09 04:25:19;;;;;;;8.10;2.67;;;12.80;99.90;;;;;;5006386;28;20625;-70
2023/06/09 04:27:45;;;;;;;5.68;2.05;;;12.80;99.90;;;;;;5005389;28;20074;-70
2023/06/09 04:30:11;;;;;;;5.82;2.47;;;12.80;99.90;;;;;;5006756;28;20636;-71
2023/06/09 04:32:37;;;;;;;9.30;2.65;;;12.80;99.90;;;;;;5005581;28;20048;-71
2023/06/09 04:35:03;;;;;;;7.55;3.78;;;12.80;99.90;;;;;;5005994;28;20046;-71
2023/06/09 04:37:30;;;;;;;6.00;2.33;;;12.80;99.90;;;;;;5006120;28;20042;-71
2023/06/09 04:39:56;;;;;;;8.68;2.53;;;12.80;99.90;;;;;;5006168;28;20037;-72
2023/06/09 04:42:22;;;;;;;11.23;2.92;;;12.80;99.90;;;;;;5004765;28;20121;-71
2023/06/09 04:44:48;;;;;;;5.55;2.90;;;12.90;99.90;;;;;;5004777;28;20056;-71
2023/06/09 04:47:17;;;;;;;5.93;3.20;;;12.90;99.90;;;;;;5005973;28;20595;-71
2023/06/09 04:49:47;;;;;;;7.95;2.83;;;13.00;99.90;;;;;;5005020;28;20054;-71
2023/06/09 04:52:17;;;;;;;7.70;2.83;;;13.00;99.90;;;;;;5005799;28;20050;-70
2023/06/09 04:54:44;;;;;;;4.45;2.50;;;13.00;99.90;;;;;;5005551;28;20064;-74
2023/06/09 04:57:11;;;;;;;12.90;3.40;;;13.00;99.90;;;;;;5004394;28;20397;-70
2023/06/09 04:59:39;;;;;;;7.60;3.20;;;13.00;99.90;;;;;;5005422;28;20046;-71
2023/06/09 05:02:05;;;;;;;15.23;2.78;;;13.10;99.90;;;;;;5004733;28;20053;-70
2023/06/09 05:04:31;;;;;;;11.00;3.00;;;13.10;99.90;;;;;;4987938;28;20066;-70
2023/06/09 05:06:57;;;;;;;6.15;2.78;;;13.10;99.90;;;;;;5004875;28;20053;-70
2023/06/09 05:09:23;;;;;;;6.68;3.38;;;13.10;99.90;;;;;;4987820;28;20038;-70
2023/06/09 05:11:48;;;;;;;6.28;3.28;;;13.20;99.90;;;;;;5005823;28;20040;-70
2023/06/09 05:14:14;;;;;;;8.15;3.33;;;13.20;99.90;;;;;;5004340;28;20065;-71
2023/06/09 05:16:40;;;;;;;7.50;2.35;;;13.20;99.90;;;;;;5005209;28;20068;-71
2023/06/09 05:19:06;;;;;;;6.90;2.85;;;13.30;99.90;;;;;;5005733;28;20042;-70
2023/06/09 05:21:32;;;;;;;7.07;2.80;;;13.30;99.90;;;;;;5004605;28;20069;-71
2023/06/09 05:23:57;;;;;;;8.93;3.30;;;13.30;99.90;;;;;;5005466;28;20050;-70
2023/06/09 05:26:23;;;;;;;8.18;2.60;;;13.30;99.90;;;;;;5006235;28;20568;-69
2023/06/09 05:28:49;;;;;;;6.80;3.03;;;13.40;99.90;;;;;;5008493;28;20045;-69
2023/06/09 05:31:16;;;;;;;6.97;2.65;;;13.40;99.90;;;;;;5008387;28;20100;-69
2023/06/09 05:33:42;;;;;;;13.25;3.13;;;13.50;99.90;;;;;;5008172;28;20337;-69
2023/06/09 05:36:08;;;;;;;7.55;2.13;;;13.50;99.90;;;;;;5009994;28;20071;-69
2023/06/09 05:38:34;;;;;;;8.60;2.40;;;13.50;99.90;;;;;;5007360;28;20046;-70
2023/06/09 05:41:00;;;;;;;8.75;2.20;;;13.60;99.90;;;;;;5008219;28;20084;-69
2023/06/09 05:43:27;;;;;;;5.18;2.85;;;13.60;99.90;;;;;;5008342;28;20073;-68
2023/06/09 05:45:53;;;;;;;8.25;2.20;;;13.60;99.90;;;;;;5008498;28;20124;-68
2023/06/09 05:48:19;;;;;;;7.20;2.97;;;13.70;99.90;;;;;;5008302;28;20121;-68
2023/06/09 05:50:47;;;;;;;7.53;2.50;;;13.70;99.90;;;;;;5007729;28;20225;-68
2023/06/09 05:53:13;;;;;;;4.95;2.05;;;13.80;99.90;;;;;;5010222;28;20892;-69
2023/06/09 05:55:38;;;;;;;9.48;2.63;;;13.90;99.90;;;;;;5007528;28;20104;-69
2023/06/09 05:58:04;;;;;;;4.85;2.15;;;13.90;99.90;;;;;;5008312;28;20065;-68
2023/06/09 06:00:30;;;;;;;11.98;3.90;;;13.90;99.90;;;;;;5007273;28;20076;-71
2023/06/09 06:02:57;;;;;;;6.05;3.05;;;13.90;99.90;;;;;;5009468;28;20056;-70
2023/06/09 06:05:23;;;;;;;5.43;2.90;;;14.00;99.90;;;;;;5008028;28;20057;-72
2023/06/09 06:07:49;;;;;;;7.47;3.22;;;14.00;99.90;;;;;;5008113;28;20042;-75
2023/06/09 06:10:15;;;;;;;7.20;3.60;;;14.00;99.90;;;;;;5005787;28;20038;-73
2023/06/09 06:12:40;;;;;;;6.90;4.13;;;14.10;99.90;;;;;;5005179;28;20045;-69
2023/06/09 06:15:06;;;;;;;7.43;3.83;;;14.10;99.90;;;;;;5008699;28;20037;-81
2023/06/09 06:17:32;;;;;;;8.30;3.33;;;14.20;99.90;;;;;;5005357;28;20042;-77
2023/06/09 06:19:58;;;;;;;5.35;3.20;;;14.20;99.90;;;;;;5007645;28;20119;-75
2023/06/09 06:22:24;;;;;;;9.10;3.03;;;14.30;99.90;;;;;;4989845;28;20092;-72
2023/06/09 06:24:49;;;;;;;10.20;2.85;;;14.30;99.90;;;;;;5007503;28;20037;-71
2023/06/09 06:27:15;;;;;;;12.07;3.20;;;14.40;99.90;;;;;;5022801;28;20053;-74
2023/06/09 06:29:41;;;;;;;13.63;4.05;;;14.50;99.90;;;;;;5008014;28;20038;-73
2023/06/09 06:32:08;;;;;;;9.02;2.85;;;14.50;99.90;;;;;;5010993;28;20103;-74
2023/06/09 06:34:34;;;;;;;11.85;4.10;;;14.60;99.90;;;;;;5000840;28;20038;-71
2023/06/09 06:37:00;;;;;;;17.05;3.30;;;14.70;99.90;;;;;;5004788;28;20048;-75
2023/06/09 06:39:25;;;;;;;13.10;2.85;;;14.70;99.90;;;;;;5008462;28;20489;-75
2023/06/09 06:41:51;;;;;;;4.95;2.13;;;14.80;99.90;;;;;;5005605;28;20135;-72
2023/06/09 06:44:17;;;;;;;7.15;2.25;;;14.80;99.90;;;;;;5006072;28;20041;-73
2023/06/09 06:46:42;;;;;;;9.32;3.25;;;14.90;99.90;;;;;;5006314;28;20108;-68
2023/06/09 06:49:08;;;;;;;6.88;2.75;;;14.90;99.90;;;;;;5007990;28;20046;-70
2023/06/09 06:51:33;;;;;;;11.07;3.97;;;14.90;99.90;;;;;;5006169;28;20041;-77
2023/06/09 06:53:59;;;;;;;5.85;2.75;;;15.00;99.90;;;;;;5005823;28;20549;-70
2023/06/09 06:56:25;;;;;;;10.93;4.45;;;15.00;99.90;;;;;;5005953;28;20038;-75
2023/06/09 06:58:52;;;;;;;8.30;3.00;;;15.00;99.90;;;;;;5006727;28;20092;-75
2023/06/09 07:01:21;;;;;;;9.75;2.70;;;15.10;99.90;;;;;;5005959;28;20375;-71
2023/06/09 07:03:49;;;;;;;5.95;2.65;;;15.10;99.90;;;;;;5007093;28;20053;-74
2023/06/09 07:06:16;;;;;;;8.18;2.47;;;15.20;99.90;;;;;;5007205;28;20080;-73
2023/06/09 07:08:42;;;;;;;8.10;2.38;;;15.20;99.90;;;;;;5006401;28;20077;-72
2023/06/09 07:11:08;;;;;;;6.93;2.38;;;15.30;99.90;;;;;;5007615;28;20302;-76
2023/06/09 07:13:33;;;;;;;8.27;2.80;;;15.40;99.90;;;;;;5004560;28;20402;-80
2023/06/09 07:16:00;;;;;;;7.65;2.67;;;15.40;99.90;;;;;;4990909;28;20044;-88
2023/06/09 07:18:26;;;;;;;12.25;3.05;;;15.40;99.90;;;;;;5007021;28;20253;-79
2023/06/09 07:20:52;;;;;;;7.05;2.30;;;15.50;99.90;;;;;;5005382;28;20057;-79
2023/06/09 07:23:17;;;;;;;4.50;2.33;;;15.60;99.90;;;;;;5006474;28;20040;-77
2023/06/09 07:25:43;;;;;;;5.88;3.08;;;15.60;99.90;;;;;;5005760;28;20053;-77
2023/06/09 07:28:09;;;;;;;8.52;2.78;;;15.60;99.90;;;;;;5006453;28;20079;-76
2023/06/09 07:30:34;;;;;;;28.30;5.90;;;15.70;99.90;;;;;;5006398;28;20080;-74
2023/06/09 07:33:00;;;;;;;11.15;3.50;;;15.70;99.90;;;;;;5006697;28;20034;-74
2023/06/09 07:35:26;;;;;;;9.65;3.00;;;15.80;99.90;;;;;;5021724;28;20486;-77
2023/06/09 07:37:52;;;;;;;6.18;3.28;;;15.80;99.90;;;;;;5004977;28;20046;-78
2023/06/09 07:40:18;;;;;;;11.55;2.75;;;15.90;99.90;;;;;;5005477;28;20107;-73
2023/06/09 07:42:44;;;;;;;6.47;2.40;;;16.00;99.90;;;;;;5004550;28;20050;-79
2023/06/09 07:45:10;;;;;;;14.38;3.42;;;16.00;99.90;;;;;;5005060;28;20540;-79
2023/06/09 07:47:36;;;;;;;15.63;2.90;;;16.10;99.90;;;;;;5021353;28;20120;-75
2023/06/09 07:50:03;;;;;;;8.43;3.08;;;16.10;99.90;;;;;;5023702;28;20492;-77
2023/06/09 07:52:28;;;;;;;6.13;2.42;;;16.20;99.90;;;;;;5004469;28;20041;-77
2023/06/09 07:54:55;;;;;;;11.70;3.22;;;16.30;99.90;;;;;;5005109;28;20056;-77
2023/06/09 07:57:21;;;;;;;7.05;3.00;;;16.30;99.90;;;;;;5004161;28;20072;-77
2023/06/09 07:59:46;;;;;;;5.20;2.28;;;16.40;99.90;;;;;;5006218;28;20046;-85
2023/06/09 08:02:12;;;;;;;7.35;4.00;;;16.50;99.90;;;;;;5004607;28;20109;-81
2023/06/09 08:04:39;;;;;;;6.97;2.17;;;16.50;99.90;;;;;;5005542;28;20053;-84
2023/06/09 08:07:05;;;;;;;7.80;2.60;;;16.60;99.90;;;;;;4988569;28;20100;-83
2023/06/09 08:09:30;;;;;;;16.08;3.28;;;16.70;99.90;;;;;;4987956;28;20038;-74
2023/06/09 08:11:56;;;;;;;14.50;3.05;;;16.70;99.90;;;;;;5001694;28;20100;-71
2023/06/09 08:14:22;;;;;;;6.75;3.35;;;16.80;99.90;;;;;;5005747;28;20080;-72
2023/06/09 08:16:48;;;;;;;10.13;4.07;;;16.80;99.90;;;;;;5004372;28;20486;-73
2023/06/09 08:19:13;;;;;;;6.78;2.65;;;16.80;99.90;;;;;;5004620;28;20069;-70
2023/06/09 08:21:43;;;;;;;36.47;8.10;;;16.90;99.90;;;;;;5004381;28;20116;-72
2023/06/09 08:24:12;;;;;;;18.40;3.60;;;17.00;99.90;;;;;;5005201;28;20038;-73
2023/06/09 08:26:38;;;;;;;31.25;5.78;;;17.00;99.90;;;;;;5004730;28;20072;-70
2023/06/09 08:29:04;;;;;;;22.98;4.43;;;17.10;99.90;;;;;;5004017;28;20120;-70
2023/06/09 08:31:31;;;;;;;10.98;4.50;;;17.10;99.90;;;;;;5004390;28;20125;-74
2023/06/09 08:33:57;;;;;;;18.15;3.97;;;17.20;99.90;;;;;;5006051;28;20045;-76
2023/06/09 08:36:23;;;;;;;9.70;3.35;;;17.20;99.90;;;;;;5003837;28;20046;-72
2023/06/09 08:38:48;;;;;;;6.75;2.88;;;17.20;99.90;;;;;;5005125;28;20419;-70
2023/06/09 08:41:15;;;;;;;14.40;2.95;;;17.30;99.90;;;;;;5004359;28;20042;-72
2023/06/09 08:43:42;;;;;;;5.00;3.40;;;17.30;99.90;;;;;;5006038;28;20171;-70
2023/06/09 08:46:11;;;;;;;6.85;2.70;;;17.40;99.90;;;;;;4988355;28;20049;-71
2023/06/09 08:48:41;;;;;;;10.55;2.72;;;17.40;99.90;;;;;;5006438;28;20607;-78
2023/06/09 08:51:08;;;;;;;11.80;3.05;;;17.50;99.90;;;;;;5004989;28;20108;-77
2023/06/09 08:53:34;;;;;;;6.82;3.45;;;17.60;99.90;;;;;;4988007;28;20100;-75
2023/06/09 08:56:01;;;;;;;3.33;1.83;;;17.60;99.90;;;;;;5004259;28;20033;-74
2023/06/09 08:58:28;;;;;;;12.77;3.58;;;17.70;99.90;;;;;;5003397;28;20049;-71
2023/06/09 09:00:54;;;;;;;14.80;2.78;;;17.70;99.90;;;;;;5004705;28;20037;-72
2023/06/09 09:03:20;;;;;;;11.10;3.63;;;17.70;99.90;;;;;;5004624;28;20133;-70
2023/06/09 09:05:47;;;;;;;8.43;3.25;;;17.80;99.90;;;;;;5002198;28;20486;-74
2023/06/09 09:08:14;;;;;;;8.57;2.30;;;17.90;99.90;;;;;;5004948;28;20501;-76
2023/06/09 09:10:45;;;;;;;8.43;2.85;;;18.00;99.90;;;;;;5004513;28;20046;-76
2023/06/09 09:13:11;;;;;;;7.03;3.63;;;18.00;99.90;;;;;;4999376;28;20038;-72
2023/06/09 09:15:46;;;;;;;10.82;4.13;;;18.10;99.90;;;;;;5003202;28;20042;-73
2023/06/09 09:18:12;;;;;;;9.82;2.63;;;18.20;99.90;;;;;;5003203;28;20069;-73
2023/06/09 09:20:37;;;;;;;7.15;2.97;;;18.20;99.90;;;;;;5004636;28;20108;-76
2023/06/09 09:23:07;;;;;;;7.35;2.88;;;18.20;99.90;;;;;;5002142;28;20034;-73
2023/06/09 09:25:32;;;;;;;9.70;3.17;;;18.20;99.90;;;;;;4994779;28;20046;-72
2023/06/09 09:28:09;;;;;;;15.52;3.22;;;18.20;99.90;;;;;;4982068;28;20205;-70
2023/06/09 09:30:43;;;;;;;10.98;3.28;;;18.30;99.90;;;;;;4999849;28;20050;-72
2023/06/09 09:33:09;;;;;;;345.35;41.22;;;18.40;99.90;;;;;;4989259;28;20487;-72
2023/06/09 09:35:39;;;;;;;9.80;3.08;;;18.40;99.90;;;;;;5003399;28;20038;-70
2023/06/09 09:38:12;;;;;;;8.50;3.22;;;18.50;99.90;;;;;;5004029;28;20038;-67
2023/06/09 09:40:43;;;;;;;7.57;2.65;;;18.60;99.90;;;;;;5002629;28;20129;-69
2023/06/09 09:43:10;;;;;;;10.32;3.53;;;18.70;99.90;;;;;;5003288;28;20046;-69
2023/06/09 09:45:38;;;;;;;10.35;2.95;;;18.80;99.90;;;;;;5004229;28;20497;-72
2023/06/09 09:48:09;;;;;;;9.43;3.40;;;18.80;99.90;;;;;;5003293;28;20053;-70
2023/06/09 09:50:39;;;;;;;6.13;2.83;;;18.90;99.90;;;;;;5003928;28;20038;-73
2023/06/09 09:53:05;;;;;;;9.38;3.97;;;19.10;99.90;;;;;;4999989;28;20044;-72
2023/06/09 09:55:33;;;;;;;6.38;2.42;;;19.10;99.90;;;;;;5004465;28;20056;-73
2023/06/09 09:58:03;;;;;;;8.07;2.97;;;19.20;99.90;;;;;;5003279;28;20536;-74
2023/06/09 10:00:29;;;;;;;7.38;3.15;;;19.30;99.90;;;;;;5003097;28;20060;-73
2023/06/09 10:02:59;;;;;;;7.07;3.08;;;19.40;99.90;;;;;;5002640;28;20046;-73
2023/06/09 10:05:29;;;;;;;5.80;2.47;;;19.40;99.90;;;;;;5004017;28;20034;-73
2023/06/09 10:07:57;;;;;;;27.50;5.05;;;19.40;99.90;;;;;;5003998;28;20428;-73
2023/06/09 10:10:26;;;;;;;6.20;2.95;;;19.50;99.90;;;;;;5005371;28;20038;-78
2023/06/09 10:12:52;;;;;;;6.43;2.75;;;19.50;99.90;;;;;;5007386;28;20052;-80
2023/06/09 10:15:20;;;;;;;7.60;3.17;;;19.60;99.90;;;;;;5008733;28;20473;-74
2023/06/09 10:17:48;;;;;;;13.02;2.97;;;19.70;99.90;;;;;;5008929;28;20038;-72
2023/06/09 10:20:14;;;;;;;5.78;3.50;;;19.70;99.90;;;;;;5011596;28;20041;-72
2023/06/09 10:22:41;;;;;;;8.40;2.80;;;19.80;99.90;;;;;;4992553;28;20077;-72
2023/06/09 10:25:08;;;;;;;16.20;2.75;;;19.80;99.90;;;;;;5007713;28;20084;-72
2023/06/09 10:27:34;;;;;;;9.32;3.17;;;19.80;99.90;;;;;;5007834;28;20042;-73
2023/06/09 10:30:01;;;;;;;8.10;3.53;;;19.90;99.90;;;;;;5007381;28;20049;-72
2023/06/09 10:32:30;;;;;;;8.45;3.70;;;20.00;99.90;;;;;;5016630;28;20048;-73
2023/06/09 10:34:57;;;;;;;9.93;2.78;;;20.00;99.90;;;;;;5008206;28;20041;-73
2023/06/09 10:37:30;;;;;;;8.45;2.72;;;20.10;99.90;;;;;;5008430;28;20042;-73
2023/06/09 10:40:09;;;;;;;6.47;3.28;;;20.20;99.90;;;;;;5008682;28;20410;-72
2023/06/09 10:42:58;;;;;;;5.60;2.78;;;20.20;99.90;;;;;;5005741;28;20093;-73
2023/06/09 10:45:48;;;;;;;8.63;2.58;;;20.20;99.90;;;;;;5003536;28;20050;-73
2023/06/09 10:48:34;;;;;;;9.65;3.30;;;20.30;99.90;;;;;;4992481;28;20042;-73
2023/06/09 10:51:26;;;;;;;7.90;3.80;;;20.40;99.90;;;;;;5006729;28;20046;-73
2023/06/09 10:54:10;;;;;;;4.97;3.30;;;20.50;99.90;;;;;;4993085;28;20103;-73
2023/06/09 10:56:37;;;;;;;6.65;2.92;;;20.50;99.90;;;;;;5005032;28;20054;-73
2023/06/09 10:59:03;;;;;;;6.78;2.63;;;20.60;99.90;;;;;;5006759;28;20042;-73
2023/06/09 11:01:29;;;;;;;6.40;2.90;;;20.70;99.90;;;;;;5006505;28;20560;-73
2023/06/09 11:03:55;;;;;;;5.43;3.35;;;20.70;99.90;;;;;;5006308;28;20042;-73
2023/06/09 11:06:20;;;;;;;5.47;2.25;;;20.80;99.90;;;;;;5007478;28;20470;-73
2023/06/09 11:09:24;;;;;;;7.85;3.30;;;20.80;99.90;;;;;;5006139;28;20513;-73
2023/06/09 11:11:52;;;;;;;7.53;3.35;;;20.90;99.90;;;;;;4984936;28;20511;-74
2023/06/09 11:14:46;;;;;;;5.32;3.00;;;20.90;99.90;;;;;;4982712;28;20088;-74
2023/06/09 11:17:19;;;;;;;9.05;2.47;;;21.00;99.90;;;;;;5006795;28;20059;-73
2023/06/09 11:19:45;;;;;;;11.38;2.88;;;21.10;99.90;;;;;;4995923;28;20042;-73
2023/06/09 11:22:11;;;;;;;6.07;2.85;;;21.10;99.90;;;;;;5022646;28;20050;-73
2023/06/09 11:24:48;;;;;;;6.70;3.13;;;21.10;99.90;;;;;;4977600;28;20045;-73
2023/06/09 11:27:18;;;;;;;7.78;3.47;;;21.10;99.90;;;;;;4988373;28;20046;-73
2023/06/09 11:30:04;;;;;;;5.45;2.95;;;21.20;99.90;;;;;;5007647;28;20397;-73
2023/06/09 11:32:46;;;;;;;4.93;2.58;;;21.20;99.90;;;;;;5005709;28;20037;-73
2023/06/09 11:35:30;;;;;;;7.13;3.70;;;21.30;99.90;;;;;;5006731;28;20077;-74
2023/06/09 11:38:07;;;;;;;6.30;3.00;;;21.30;99.90;;;;;;5004927;28;20501;-73
2023/06/09 11:40:37;;;;;;;4.20;3.03;;;21.30;99.90;;;;;;5005718;28;20042;-73
2023/06/09 11:43:09;;;;;;;8.75;3.65;;;21.30;99.90;;;;;;5004401;28;20054;-73
2023/06/09 11:45:36;;;;;;;;;;;21.40;99.90;;;;;;5007233;28;20046;-73
2023/06/09 11:48:04;;;;;;;5.30;3.13;;;21.40;99.90;;;;;;5007215;28;19929;-72
2023/06/09 11:50:39;;;;;;;7.50;3.10;;;21.40;99.90;;;;;;5006711;28;20056;-73
2023/06/09 11:53:06;;;;;;;8.57;3.33;;;21.50;99.90;;;;;;5006700;28;20056;-73
2023/06/09 11:55:32;;;;;;;11.32;3.10;;;21.50;99.90;;;;;;5003810;28;20061;-74
2023/06/09 11:57:59;;;;;;;7.20;3.83;;;21.50;99.90;;;;;;5004143;28;20141;-74
2023/06/09 12:00:26;;;;;;;8.60;2.53;;;21.50;99.90;;;;;;5005927;28;20046;-74
2023/06/09 12:02:53;;;;;;;6.32;2.88;;;21.50;99.90;;;;;;5005372;28;20092;-75
2023/06/09 12:05:19;;;;;;;5.68;2.90;;;21.50;99.90;;;;;;5005151;28;20052;-74
2023/06/09 12:07:46;;;;;;;7.97;3.00;;;21.50;99.90;;;;;;5005043;28;20034;-75
2023/06/09 12:10:16;;;;;;;13.13;3.80;;;21.50;99.90;;;;;;5005821;28;20085;-74
2023/06/09 12:12:46;;;;;;;7.18;2.88;;;21.50;99.90;;;;;;5005223;28;20042;-74
2023/06/09 12:15:13;;;;;;;9.05;4.45;;;21.60;99.90;;;;;;5005840;28;20442;-75
2023/06/09 12:17:40;;;;;;;9.60;3.55;;;21.60;99.90;;;;;;5006513;28;20510;-74
2023/06/09 12:20:24;;;;;;;8.10;3.05;;;21.60;99.90;;;;;;5004802;28;20038;-74
2023/06/09 12:22:50;;;;;;;9.02;3.10;;;21.50;99.90;;;;;;5004770;28;20096;-74
2023/06/09 12:25:27;;;;;;;6.18;3.53;;;21.60;99.90;;;;;;5005719;28;20045;-74
2023/06/09 12:28:19;;;;;;;16.83;3.60;;;21.60;99.90;;;;;;4988013;28;20054;-74
2023/06/09 12:30:47;;;;;;;7.47;3.23;;;21.60;99.90;;;;;;5004314;28;20077;-74
2023/06/09 12:33:19;;;;;;;7.68;3.25;;;21.70;99.90;;;;;;5004599;28;20077;-74
2023/06/09 12:35:47;;;;;;;9.15;2.88;;;21.70;99.90;;;;;;5005490;28;20498;-73
2023/06/09 12:38:23;;;;;;;5.95;3.08;;;21.70;99.90;;;;;;5004724;28;20124;-74
2023/06/09 12:40:50;;;;;;;11.30;3.90;;;21.70;99.90;;;;;;5005363;28;20517;-73
2023/06/09 12:43:17;;;;;;;5.40;3.08;;;21.70;99.90;;;;;;5005829;28;20042;-74
2023/06/09 12:45:43;;;;;;;9.73;3.15;;;21.70;99.90;;;;;;5006209;28;20058;-74
2023/06/09 12:48:09;;;;;;;8.52;3.20;;;21.70;99.90;;;;;;5007073;28;20034;-74
2023/06/09 12:50:36;;;;;;;7.22;3.17;;;21.70;99.90;;;;;;5005586;28;20103;-73